Time;durP1;ratioP1;P1;durP2;ratioP2;P2;SDS_P1;SDS_P2;PMS_P1;PMS_P2;Temp;Humidity;BMP_temperature;BMP_pressure;BME280_temperature;BME280_humidity;BME280_pressure;Samples;Min_cycle;Max_cycle;Signal;HPM_P1;HPM_P2
2021/10/25 00:01:14;;;;;;;;;11.75;10.75;;;;;16.45;51.88;99684.53;4938295;28;102561;-88
2021/10/25 00:03:41;;;;;;;;;10.50;10.25;;;;;16.43;51.77;99678.47;4930167;28;102350;-88
2021/10/25 00:06:08;;;;;;;;;11.25;10.00;;;;;16.42;50.71;99684.13;4939562;28;102461;-87
2021/10/25 00:08:35;;;;;;;;;11.00;11.00;;;;;16.41;50.67;99690.66;4940110;28;104299;-87
2021/10/25 00:11:03;;;;;;;;;13.00;9.25;;;;;16.42;51.19;99678.69;4954434;28;103502;-88
2021/10/25 00:13:30;;;;;;;;;11.00;9.75;;;;;16.42;51.60;99686.88;4953066;28;102248;-87
2021/10/25 00:15:57;;;;;;;;;12.75;10.75;;;;;16.41;51.12;99686.03;4951177;28;103180;-87
2021/10/25 00:18:24;;;;;;;;;11.00;10.00;;;;;16.39;51.60;99679.94;4933078;28;104246;-87
2021/10/25 00:20:51;;;;;;;;;12.00;11.50;;;;;16.38;51.01;99680.16;4955439;28;103129;-88
2021/10/25 00:23:18;;;;;;;;;12.00;9.75;;;;;16.37;50.70;99681.19;4941841;28;104407;-88
2021/10/25 00:25:46;;;;;;;;;14.75;10.00;;;;;16.36;51.48;99679.53;4954953;28;104019;-88
2021/10/25 00:28:13;;;;;;;;;11.25;8.75;;;;;16.35;51.33;99666.91;4949790;28;104725;-88
2021/10/25 00:30:41;;;;;;;;;14.00;11.00;;;;;16.35;51.21;99675.09;4955606;28;102545;-87
2021/10/25 00:33:08;;;;;;;;;11.75;10.25;;;;;16.34;50.89;99674.28;4944802;28;103144;-88
2021/10/25 00:35:35;;;;;;;;;9.75;9.25;;;;;16.35;51.48;99675.09;4956454;28;102291;-88
2021/10/25 00:38:02;;;;;;;;;10.00;8.50;;;;;16.33;50.98;99678.06;4942687;28;104306;-88
2021/10/25 00:40:29;;;;;;;;;8.00;7.50;;;;;16.34;50.64;99668.00;4939657;28;102524;-87
2021/10/25 00:42:56;;;;;;;;;9.75;9.00;;;;;16.33;50.49;99674.50;4952232;28;102515;-87
2021/10/25 00:45:23;;;;;;;;;14.25;11.00;;;;;16.32;51.22;99670.06;4962165;28;102492;-88
2021/10/25 00:47:50;;;;;;;;;9.25;8.25;;;;;16.31;51.15;99671.13;4959061;28;108759;-88
2021/10/25 00:50:17;;;;;;;;;14.25;9.75;;;;;16.31;51.26;99671.13;4950747;28;102525;-88
2021/10/25 00:52:44;;;;;;;;;10.00;10.00;;;;;16.31;51.07;99671.13;4952630;28;102667;-88
2021/10/25 00:55:12;;;;;;;;;10.50;10.25;;;;;16.29;50.46;99667.78;4946151;28;102533;-88
2021/10/25 00:57:39;;;;;;;;;11.25;10.50;;;;;16.29;50.90;99673.25;4957357;28;103875;-88
2021/10/25 01:00:08;;;;;;;;;15.00;10.50;;;;;16.28;50.97;99664.22;4948019;28;102284;-87
2021/10/25 01:02:35;;;;;;;;;9.75;9.00;;;;;16.27;50.61;99651.59;4914979;28;103169;-88
2021/10/25 01:05:03;;;;;;;;;10.00;9.25;;;;;16.23;51.21;99646.78;4938501;28;103586;-87
2021/10/25 01:07:30;;;;;;;;;11.75;10.75;;;;;16.23;50.73;99641.31;4916604;28;104217;-87
2021/10/25 01:09:57;;;;;;;;;14.33;11.33;;;;;16.24;50.63;99645.75;4937725;28;102557;-87
2021/10/25 01:12:25;;;;;;;;;11.75;11.00;;;;;16.23;51.10;99641.31;4949396;28;102479;-87
2021/10/25 01:14:52;;;;;;;;;10.25;10.00;;;;;16.23;50.82;99647.63;4927264;28;102211;-88
2021/10/25 01:17:19;;;;;;;;;12.00;10.50;;;;;16.22;50.53;99645.09;4929456;28;103769;-87
2021/10/25 01:19:46;;;;;;;;;3.00;1.75;;;;;16.22;51.25;99639.66;4931135;28;102605;-87
2021/10/25 01:22:13;;;;;;;;;10.25;10.25;;;;;16.21;50.41;99638.81;4931782;28;102758;-87
2021/10/25 01:24:42;;;;;;;;;10.00;9.00;;;;;16.21;50.33;99644.25;4930510;28;102729;-87
2021/10/25 01:27:10;;;;;;;;;10.25;9.75;;;;;16.22;50.79;99645.09;4931188;28;103619;-87
2021/10/25 01:29:37;;;;;;;;;12.50;10.00;;;;;16.21;50.65;99638.00;4936737;28;102228;-87
2021/10/25 01:32:04;;;;;;;;;10.00;9.00;;;;;16.18;50.94;99627.47;4926222;28;102180;-87
2021/10/25 01:34:31;;;;;;;;;14.00;11.75;;;;;16.17;51.08;99634.81;4933300;28;102983;-87
2021/10/25 01:36:58;;;;;;;;;11.25;9.50;;;;;16.16;50.77;99630.44;4925895;28;104294;-87
2021/10/25 01:39:26;;;;;;;;;8.25;8.25;;;;;16.17;51.24;99625.78;4925055;28;102128;-87
2021/10/25 01:41:53;;;;;;;;;13.00;11.75;;;;;16.17;51.00;99628.53;4924572;28;102650;-88
2021/10/25 01:44:20;;;;;;;;;12.25;9.25;;;;;16.16;50.71;99629.59;4932949;28;102421;-88
2021/10/25 01:46:48;;;;;;;;;11.75;9.00;;;;;16.15;51.18;99633.38;4934652;28;104087;-88
2021/10/25 01:49:15;;;;;;;;;10.75;10.50;;;;;16.13;50.80;99627.28;4936587;28;113305;-88
2021/10/25 01:51:42;;;;;;;;;10.25;9.50;;;;;16.13;50.91;99621.81;4938072;28;102377;-88
2021/10/25 01:54:10;;;;;;;;;14.25;9.25;;;;;16.10;50.48;99619.50;4936991;28;102554;-88
2021/10/25 01:56:39;;;;;;;;;10.00;9.25;;;;;16.09;50.55;99607.75;4935437;28;104121;-87
2021/10/25 01:59:07;;;;;;;;;13.00;10.50;;;;;16.10;50.69;99614.06;4943439;28;103630;-88
2021/10/25 02:01:34;;;;;;;;;8.00;7.75;;;;;16.08;50.60;99612.38;4940195;28;102259;-88
2021/10/25 02:04:03;;;;;;;;;11.25;10.50;;;;;16.10;50.77;99611.31;4939631;28;102370;-87
2021/10/25 02:06:30;;;;;;;;;8.75;8.50;;;;;16.10;50.39;99605.88;4938575;28;103579;-87
2021/10/25 02:08:57;;;;;;;;;14.00;10.75;;;;;16.08;50.48;99606.91;4934842;28;102515;-87
2021/10/25 02:11:24;;;;;;;;;5.75;4.75;;;;;16.07;50.53;99609.88;4939314;28;102637;-87
2021/10/25 02:13:51;;;;;;;;;11.50;9.25;;;;;16.07;50.72;99599.78;4950804;28;102593;-87
2021/10/25 02:16:18;;;;;;;;;14.25;12.00;;;;;16.07;50.60;99599.78;4954056;28;105860;-87
2021/10/25 02:18:45;;;;;;;;;12.50;11.25;;;;;16.05;51.00;99601.06;4958006;28;102134;-87
2021/10/25 02:21:12;;;;;;;;;12.00;9.00;;;;;16.06;51.01;99598.13;4955598;28;103028;-88
2021/10/25 02:23:39;;;;;;;;;11.25;10.00;;;;;16.04;51.03;99592.03;4950505;28;102231;-88
2021/10/25 02:26:06;;;;;;;;;12.00;9.75;;;;;16.03;50.53;99589.50;4960296;28;104063;-88
2021/10/25 02:28:34;;;;;;;;;10.25;8.00;;;;;16.02;50.05;99588.69;4939202;28;102118;-87
2021/10/25 02:31:03;;;;;;;;;11.50;9.75;;;;;16.00;50.79;99590.78;4953611;28;102668;-87
2021/10/25 02:33:32;;;;;;;;;12.00;10.00;;;;;16.01;50.36;99586.16;4960486;28;102814;-88
2021/10/25 02:36:00;;;;;;;;;10.25;10.00;;;;;16.00;50.64;99588.03;4954592;28;104210;-88
2021/10/25 02:38:27;;;;;;;;;12.25;11.00;;;;;16.01;50.44;99586.16;4961674;28;102434;-88
2021/10/25 02:40:54;;;;;;;;;9.25;8.50;;;;;16.01;50.34;99581.53;4957365;28;103277;-88
2021/10/25 02:43:21;;;;;;;;;12.50;10.00;;;;;16.00;50.47;99579.03;4937510;28;102689;-87
2021/10/25 02:45:48;;;;;;;;;9.50;9.25;;;;;16.00;50.59;99577.13;4959258;28;104204;-87
2021/10/25 02:48:15;;;;;;;;;10.00;9.00;;;;;16.00;50.85;99577.13;4952091;28;102358;-87
2021/10/25 02:50:43;;;;;;;;;9.50;9.50;;;;;16.00;50.75;99576.28;4929805;28;103221;-87
2021/10/25 02:53:11;;;;;;;;;10.00;9.25;;;;;15.99;50.46;99574.59;4963924;28;102611;-88
2021/10/25 02:55:38;;;;;;;;;9.75;9.00;;;;;15.98;50.70;99579.25;4956925;28;103796;-88
2021/10/25 02:58:05;;;;;;;;;12.00;9.75;;;;;15.96;50.52;99562.25;4958464;28;103373;-88
2021/10/25 03:00:32;;;;;;;;;11.00;9.00;;;;;15.96;50.84;99572.31;4954919;28;102701;-88
2021/10/25 03:02:59;;;;;;;;;9.25;7.75;;;;;15.96;50.20;99569.59;4953511;28;102457;-88
2021/10/25 03:05:27;;;;;;;;;11.75;9.75;;;;;15.95;50.52;99570.63;4936143;28;104303;-87
2021/10/25 03:07:54;;;;;;;;;10.00;8.50;;;;;15.94;49.97;99567.06;4940974;28;102457;-88
2021/10/25 03:10:21;;;;;;;;;12.00;10.75;;;;;15.93;50.47;99565.41;4947596;28;103634;-88
2021/10/25 03:12:48;;;;;;;;;7.25;7.00;;;;;15.91;50.32;99561.19;4963339;28;102371;-88
2021/10/25 03:15:16;;;;;;;;;9.75;8.25;;;;;15.90;50.87;99557.63;4956111;28;104254;-87
2021/10/25 03:17:44;;;;;;;;;7.00;7.00;;;;;15.91;50.74;99562.03;4952173;28;102405;-88
2021/10/25 03:20:12;;;;;;;;;11.00;8.00;;;;;15.90;50.20;99554.06;4946701;28;102136;-88
2021/10/25 03:22:40;;;;;;;;;10.50;9.00;;;;;15.90;50.38;99568.53;4954057;28;102683;-87
2021/10/25 03:25:07;;;;;;;;;11.00;9.75;;;;;15.92;49.97;99562.88;4951002;28;107826;-87
2021/10/25 03:27:34;;;;;;;;;8.00;5.75;;;;;15.90;50.59;99556.78;4950626;28;102188;-88
2021/10/25 03:30:02;;;;;;;;;9.75;9.00;;;;;15.88;50.44;99554.28;4945264;28;110857;-88
2021/10/25 03:32:29;;;;;;;;;7.25;7.00;;;;;15.88;50.12;99556.19;4954776;28;102531;-88
2021/10/25 03:34:56;;;;;;;;;10.50;9.50;;;;;15.87;50.18;99557.22;4952065;28;104118;-87
2021/10/25 03:37:23;;;;;;;;;12.00;7.75;;;;;15.87;50.32;99549.88;4954024;28;102421;-87
2021/10/25 03:39:52;;;;;;;;;9.25;8.25;;;;;15.86;49.97;99547.34;4951596;28;103288;-87
2021/10/25 03:42:31;;;;;;;;;9.75;9.00;;;;;15.87;50.00;99541.69;4946433;28;102688;-88
2021/10/25 03:45:15;;;;;;;;;12.25;7.25;;;;;15.86;50.20;99542.75;4942816;28;109945;-88
2021/10/25 03:47:54;;;;;;;;;10.50;9.50;;;;;15.86;50.44;99541.91;4943996;28;102646;-88
2021/10/25 03:50:23;;;;;;;;;10.00;8.25;;;;;15.84;49.56;99539.41;4948076;28;103294;-88
2021/10/25 03:53:17;;;;;;;;;10.75;8.00;;;;;15.82;50.41;99541.50;4958783;28;102314;-88
2021/10/25 04:04:07;;;;;;;;;9.50;9.25;;;;;15.78;50.38;99521.16;4959866;28;102938;-88
2021/10/25 04:28:27;;;;;;;;;13.50;11.25;;;;;15.83;50.78;99493.25;4955952;28;109119;-87
2021/10/25 04:30:56;;;;;;;;;14.50;11.00;;;;;15.79;50.50;99476.47;4956086;28;102377;-88
2021/10/25 04:33:24;;;;;;;;;10.00;9.00;;;;;15.79;50.31;99483.81;4948711;28;102508;-88
2021/10/25 04:35:51;;;;;;;;;10.75;10.50;;;;;15.78;50.68;99485.69;4956846;28;102687;-88
2021/10/25 04:38:18;;;;;;;;;11.50;9.75;;;;;15.77;50.37;99484.00;4931622;28;104083;-88
2021/10/25 04:40:46;;;;;;;;;11.25;11.00;;;;;15.75;50.22;99488.88;4957095;28;102469;-88
2021/10/25 04:43:14;;;;;;;;;11.00;10.00;;;;;15.74;50.42;99472.69;4952234;28;103530;-88
2021/10/25 04:45:41;;;;;;;;;14.50;9.50;;;;;15.75;50.19;99480.69;4951888;28;103980;-88
2021/10/25 04:48:08;;;;;;;;;9.00;7.50;;;;;15.75;50.43;99480.69;4953163;28;104271;-88
2021/10/25 04:50:35;;;;;;;;;9.50;9.50;;;;;15.75;50.62;99482.56;4951135;28;102400;-87
2021/10/25 04:53:02;;;;;;;;;12.25;11.00;;;;;15.73;50.09;99485.50;4951926;28;102595;-88
2021/10/25 04:55:29;;;;;;;;;9.00;9.00;;;;;15.73;50.02;99477.31;4952037;28;102579;-88
2021/10/25 04:57:56;;;;;;;;;8.25;8.25;;;;;15.73;50.16;99482.75;4961989;28;104289;-87
2021/10/25 05:00:24;;;;;;;;;9.25;8.75;;;;;15.73;50.42;99481.94;4947448;28;105455;-87
2021/10/25 05:02:51;;;;;;;;;9.00;8.25;;;;;15.71;51.03;99479.44;4942660;28;103502;-87
2021/10/25 05:05:18;;;;;;;;;12.00;10.00;;;;;15.72;50.80;99466.59;4950907;28;103126;-88
2021/10/25 05:07:45;;;;;;;;;9.75;7.75;;;;;15.72;50.77;99481.09;4948892;28;104344;-87
2021/10/25 05:10:12;;;;;;;;;10.25;9.25;;;;;15.69;50.63;99465.16;4952552;28;102474;-88
2021/10/25 05:12:39;;;;;;;;;15.75;8.75;;;;;15.71;50.69;99467.69;4951716;28;102157;-87
2021/10/25 05:15:06;;;;;;;;;11.00;8.75;;;;;15.70;50.84;99466.84;4949781;28;105645;-88
2021/10/25 05:17:33;;;;;;;;;11.00;9.00;;;;;15.71;50.98;99468.53;4951318;28;104189;-87
2021/10/25 05:20:00;;;;;;;;;10.50;10.00;;;;;15.70;50.63;99468.72;4923965;28;102887;-88
2021/10/25 05:22:27;;;;;;;;;9.25;9.25;;;;;15.69;50.56;99465.16;4951964;28;102611;-88
2021/10/25 05:24:56;;;;;;;;;12.00;9.00;;;;;15.70;50.84;99477.75;4954201;28;102270;-88
2021/10/25 05:27:24;;;;;;;;;11.00;9.00;;;;;15.68;50.49;99468.94;4958615;28;108855;-87
2021/10/25 05:29:51;;;;;;;;;7.25;7.00;;;;;15.67;50.25;99472.69;4955839;28;102634;-87
2021/10/25 05:32:19;;;;;;;;;10.00;9.25;;;;;15.67;50.55;99467.25;4943477;28;103647;-88
2021/10/25 05:34:46;;;;;;;;;13.00;9.50;;;;;15.65;50.71;99466.63;4937891;28;103216;-87
2021/10/25 05:37:13;;;;;;;;;12.00;9.25;;;;;15.67;50.93;99475.44;4955552;28;104109;-88
2021/10/25 05:39:40;;;;;;;;;11.75;10.00;;;;;15.64;51.04;99481.31;4947368;28;106923;-88
2021/10/25 05:42:08;;;;;;;;;11.50;10.00;;;;;15.68;51.29;99473.53;4954644;28;102112;-88
2021/10/25 05:44:36;;;;;;;;;13.75;9.75;;;;;15.69;50.86;99477.94;4952027;28;102376;-88
2021/10/25 05:47:04;;;;;;;;;14.00;11.25;;;;;15.71;50.83;99473.97;4947740;28;104756;-87
2021/10/25 05:49:31;;;;;;;;;6.50;6.50;;;;;15.75;50.18;99475.22;4944896;28;102584;-88
2021/10/25 05:51:59;;;;;;;;;16.75;15.25;;;;;15.77;50.29;99478.56;4964503;28;102491;-88
2021/10/25 05:54:27;;;;;;;;;14.50;12.00;;;;;15.80;50.19;99464.53;4942872;28;103968;-88
2021/10/25 05:56:54;;;;;;;;;14.50;11.75;;;;;15.85;49.97;99467.41;4948352;28;112373;-88
2021/10/25 05:59:25;;;;;;;;;16.25;12.25;;;;;15.86;50.15;99477.28;4955811;28;102538;-87
2021/10/25 06:04:37;;;;;;;;;12.25;11.00;;;;;15.89;49.63;99482.34;4948748;28;102329;-88
2021/10/25 06:07:04;;;;;;;;;16.25;13.50;;;;;15.89;50.00;99485.06;4956017;28;103950;-88
2021/10/25 06:09:34;;;;;;;;;10.75;9.00;;;;;15.91;50.29;99480.22;4956566;28;102673;-88
2021/10/25 06:12:05;;;;;;;;;17.25;13.00;;;;;15.93;50.05;99486.31;4948017;28;103583;-88
2021/10/25 06:14:37;;;;;;;;;12.00;11.00;;;;;15.94;50.66;99487.94;4954150;28;103223;-88
2021/10/25 06:17:15;;;;;;;;;13.50;12.75;;;;;15.95;50.65;99481.47;4953306;28;104242;-88
2021/10/25 06:19:42;;;;;;;;;12.75;11.75;;;;;15.97;49.95;99487.56;4950848;28;102527;-88
2021/10/25 06:22:10;;;;;;;;;9.50;9.00;;;;;15.97;49.96;99490.28;4950580;28;102419;-88
2021/10/25 06:24:37;;;;;;;;;16.75;12.50;;;;;15.97;50.44;99484.81;4954294;28;102349;-88
2021/10/25 06:27:04;;;;;;;;;10.50;9.75;;;;;15.98;50.08;99481.06;4947972;28;111821;-88
2021/10/25 06:29:31;;;;;;;;;14.25;12.25;;;;;15.99;49.74;99485.44;4936400;28;103967;-88
2021/10/25 06:32:01;;;;;;;;;14.75;13.25;;;;;16.01;49.95;99479.75;4959892;28;102154;-88
2021/10/25 06:34:34;;;;;;;;;16.00;14.25;;;;;16.01;50.31;99485.22;4950483;28;103433;-88
2021/10/25 06:37:02;;;;;;;;;12.25;11.00;;;;;16.01;49.91;99486.06;4946132;28;107677;-88
2021/10/25 06:39:38;;;;;;;;;15.75;12.25;;;;;16.00;50.44;99478.94;4948246;28;105227;-89
2021/10/25 06:42:08;;;;;;;;;13.25;12.00;;;;;16.00;50.66;99481.66;4951287;28;102279;-87
2021/10/25 06:44:44;;;;;;;;;14.00;11.50;;;;;16.01;50.40;99477.88;4949050;28;102678;-88
2021/10/25 06:47:11;;;;;;;;;13.25;13.00;;;;;16.00;50.48;99484.38;4954123;28;104651;-88
2021/10/25 06:49:38;;;;;;;;;15.00;12.50;;;;;16.02;50.71;99485.03;4942105;28;102246;-87
2021/10/25 06:52:05;;;;;;;;;14.25;13.75;;;;;16.01;49.81;99488.78;4945508;28;102516;-87
2021/10/25 06:54:32;;;;;;;;;14.25;12.00;;;;;16.02;49.86;99493.19;4940758;28;102314;-88
2021/10/25 06:56:59;;;;;;;;;13.75;12.75;;;;;16.02;49.72;99486.91;4949753;28;103753;-87
2021/10/25 06:59:26;;;;;;;;;13.50;11.00;;;;;16.03;50.23;99492.13;4946945;28;104056;-88
2021/10/25 07:01:53;;;;;;;;;14.25;12.50;;;;;16.05;50.23;99491.94;4951467;28;102486;-88
2021/10/25 07:04:20;;;;;;;;;10.50;10.00;;;;;16.05;49.98;99494.66;4945807;28;103039;-87
2021/10/25 07:06:48;;;;;;;;;15.50;12.50;;;;;16.04;50.36;99487.50;4948627;28;104082;-88
2021/10/25 07:09:16;;;;;;;;;15.75;14.00;;;;;16.06;50.39;99497.19;4945330;28;102455;-88
2021/10/25 07:11:44;;;;;;;;;13.25;11.25;;;;;16.03;50.15;99488.56;4956898;28;107351;-88
2021/10/25 07:14:13;;;;;;;;;13.25;12.75;;;;;16.04;50.61;99485.63;4948483;28;102683;-88
2021/10/25 07:16:48;;;;;;;;;14.50;11.25;;;;;16.05;50.16;99489.19;4949672;28;104316;-88
2021/10/25 07:19:23;;;;;;;;;15.25;14.25;;;;;16.05;50.13;99481.00;4955721;28;102482;-88
2021/10/25 08:10:40;;;;;;;;;18.75;16.75;;;;;16.00;50.23;99439.91;4958567;28;104013;-88
2021/10/25 08:13:13;;;;;;;;;15.25;13.25;;;;;16.01;50.76;99447.88;4949636;28;102424;-87
2021/10/25 08:15:42;;;;;;;;;17.25;14.50;;;;;15.99;50.21;99452.69;4949273;28;102856;-88
2021/10/25 08:20:52;;;;;;;;;12.00;12.00;;;;;16.00;50.50;99445.34;4958609;28;105573;-88
2021/10/25 08:23:19;;;;;;;;;12.25;11.00;;;;;15.99;50.18;99438.22;4958845;28;103571;-88
2021/10/25 08:25:46;;;;;;;;;16.50;13.50;;;;;16.00;50.68;99440.75;4951501;28;102725;-88
2021/10/25 08:28:13;;;;;;;;;19.50;15.50;;;;;16.01;50.82;99441.56;4955859;28;102289;-88
2021/10/25 08:30:41;;;;;;;;;16.50;14.75;;;;;16.01;50.19;99444.31;4950163;28;104055;-87
2021/10/25 08:33:46;;;;;;;;;15.50;15.25;;;;;16.02;50.69;99438.66;4944961;28;102296;-88
2021/10/25 08:36:20;;;;;;;;;19.00;14.75;;;;;16.04;50.45;99439.25;4951336;28;102265;-88
2021/10/25 08:41:34;;;;;;;;;18.00;16.75;;;;;16.03;50.14;99432.09;4950709;28;108712;-88
2021/10/25 08:44:04;;;;;;;;;16.25;14.00;;;;;16.03;50.73;99423.94;4932260;28;102748;-87
2021/10/25 08:46:32;;;;;;;;;14.50;13.50;;;;;16.04;50.08;99425.59;4951553;28;102325;-87
2021/10/25 08:48:59;;;;;;;;;15.00;13.50;;;;;16.04;50.32;99422.88;4942943;28;102404;-87
2021/10/25 08:51:26;;;;;;;;;16.75;14.25;;;;;16.05;50.37;99431.91;4919405;28;109215;-87
2021/10/25 08:53:53;;;;;;;;;14.50;14.00;;;;;16.04;49.99;99420.16;4934293;28;102570;-87
2021/10/25 08:56:20;;;;;;;;;16.50;13.50;;;;;16.06;50.42;99422.69;4933746;28;102550;-87
2021/10/25 08:58:50;;;;;;;;;17.50;12.25;;;;;16.05;50.18;99421.84;4912192;28;102404;-87
2021/10/25 09:01:27;;;;;;;;;16.75;12.75;;;;;16.05;50.14;99413.66;4929001;28;104109;-87
2021/10/25 09:04:08;;;;;;;;;17.50;13.00;;;;;16.06;50.40;99411.75;4946738;28;102561;-87
2021/10/25 09:06:35;;;;;;;;;14.25;14.00;;;;;16.04;50.33;99414.69;4920352;28;105368;-87
2021/10/25 09:09:06;;;;;;;;;17.50;15.75;;;;;16.08;50.20;99407.75;4919089;28;102258;-87
2021/10/25 09:11:34;;;;;;;;;13.25;12.50;;;;;16.10;50.87;99409.44;4945710;28;105172;-88
2021/10/25 09:14:01;;;;;;;;;15.75;14.25;;;;;16.07;50.09;99414.25;4888449;28;102662;-88
2021/10/25 09:16:28;;;;;;;;;15.00;12.75;;;;;16.11;50.04;99411.13;4892813;28;102632;-88
2021/10/25 09:18:55;;;;;;;;;15.75;13.00;;;;;16.10;50.10;99413.00;4909273;28;103130;-87
2021/10/25 09:21:32;;;;;;;;;14.25;12.00;;;;;16.11;50.73;99403.78;4912721;28;104179;-88
2021/10/25 09:24:00;;;;;;;;;13.50;13.25;;;;;16.08;50.04;99393.25;4905815;28;102474;-87
2021/10/25 09:26:31;;;;;;;;;15.75;13.25;;;;;16.11;50.67;99403.78;4908670;28;102429;-87
2021/10/25 09:29:01;;;;;;;;;12.75;11.75;;;;;16.12;50.64;99390.97;4910978;28;103084;-87
2021/10/25 09:31:31;;;;;;;;;12.00;12.00;;;;;16.11;49.73;99386.56;4902248;28;108732;-88
2021/10/25 09:34:05;;;;;;;;;14.50;13.00;;;;;16.12;50.20;99382.78;4908158;28;102614;-87
2021/10/25 09:36:49;;;;;;;;;9.25;9.25;;;;;16.11;50.06;99381.09;4901023;28;102488;-88
2021/10/25 09:39:27;;;;;;;;;13.25;11.00;;;;;16.14;50.05;99391.56;4905299;28;103379;-87
2021/10/25 09:50:01;;;;;;;;;15.75;13.25;;;;;16.13;50.06;99368.91;4905546;28;103325;-87
2021/10/25 09:52:40;;;;;;;;;15.75;13.25;;;;;16.14;49.92;99377.94;4905995;28;108927;-87
2021/10/25 09:55:09;;;;;;;;;13.75;11.00;;;;;16.13;49.95;99377.09;4907222;28;102191;-88
2021/10/25 09:57:42;;;;;;;;;13.00;11.50;;;;;16.16;50.32;99376.66;4901721;28;103288;-87
2021/10/25 10:00:10;;;;;;;;;13.00;11.00;;;;;16.17;49.98;99372.03;4907032;28;102596;-88
2021/10/25 10:02:37;;;;;;;;;14.50;10.00;;;;;16.17;49.98;99383.78;4907979;28;108137;-88
2021/10/25 10:05:06;;;;;;;;;14.00;13.00;;;;;16.17;50.70;99372.03;4906668;28;103073;-88
2021/10/25 10:07:33;;;;;;;;;16.75;13.25;;;;;16.17;50.13;99372.88;4909421;28;102235;-88
2021/10/25 10:10:00;;;;;;;;;12.00;11.25;;;;;16.19;50.48;99372.66;4915963;28;102482;-88
2021/10/25 10:12:27;;;;;;;;;12.00;11.50;;;;;16.15;50.01;99363.22;4910244;28;104028;-88
2021/10/25 10:14:59;;;;;;;;;14.25;12.00;;;;;16.17;50.50;99370.13;4920655;28;102611;-87
2021/10/25 10:17:44;;;;;;;;;12.50;10.25;;;;;16.17;50.49;99361.09;4935232;28;102624;-88
2021/10/25 10:20:12;;;;;;;;;11.25;11.25;;;;;16.16;50.55;99351.28;4936970;28;102411;-87
2021/10/25 10:22:47;;;;;;;;;13.50;12.25;;;;;16.19;49.74;99359.00;4910266;28;104352;-88
2021/10/25 10:25:34;;;;;;;;;11.50;10.00;;;;;16.20;49.64;99357.97;4929571;28;102944;-87
2021/10/25 10:28:08;;;;;;;;;10.00;9.25;;;;;16.20;50.64;99350.63;4908594;28;102731;-87
2021/10/25 10:30:53;;;;;;;;;11.25;10.00;;;;;16.21;50.32;99346.81;4943138;28;102354;-88
2021/10/25 10:34:00;;;;;;;;;11.50;10.50;;;;;16.24;50.25;99348.28;4928023;28;103390;-88
2021/10/25 10:36:34;;;;;;;;;11.75;11.50;;;;;16.22;50.01;99350.38;4890981;28;102419;-87
2021/10/25 10:39:09;;;;;;;;;11.75;11.50;;;;;16.25;50.04;99350.81;4927692;28;102659;-87
2021/10/25 10:41:41;;;;;;;;;11.50;10.50;;;;;16.24;49.95;99343.66;4919657;28;102552;-88
2021/10/25 10:44:11;;;;;;;;;10.25;10.00;;;;;16.25;50.77;99349.97;4907888;28;103864;-88
2021/10/25 10:46:54;;;;;;;;;13.50;10.25;;;;;16.25;50.43;99344.50;4924822;28;102690;-88
2021/10/25 10:49:32;;;;;;;;;11.50;10.25;;;;;16.26;50.46;99341.53;4928423;28;102530;-87
2021/10/25 10:52:22;;;;;;;;;10.50;10.25;;;;;16.26;50.20;99341.53;4916853;28;102522;-87
2021/10/25 10:55:06;;;;;;;;;15.50;12.00;;;;;16.27;50.38;99336.91;4928782;28;109359;-88
2021/10/25 11:00:47;;;;;;;;;12.25;10.75;;;;;16.27;51.03;99337.75;4922365;28;102507;-87
2021/10/25 11:03:20;;;;;;;;;11.75;10.50;;;;;16.27;50.57;99331.47;4906243;28;102641;-87
2021/10/25 11:05:50;;;;;;;;;10.50;9.75;;;;;16.28;50.22;99327.69;4919067;28;103412;-87
2021/10/25 11:08:21;;;;;;;;;13.25;10.75;;;;;16.28;50.86;99330.41;4930406;28;102583;-87
2021/10/25 11:11:20;;;;;;;;;11.50;9.75;;;;;16.29;50.14;99323.91;4929657;28;110499;-87
2021/10/25 11:14:04;;;;;;;;;9.50;8.00;;;;;16.31;50.06;99319.03;4909951;28;102733;-87
2021/10/25 11:19:02;;;;;;;;;13.50;9.50;;;;;16.32;49.89;99324.28;4947515;28;102553;-87
2021/10/25 11:21:33;;;;;;;;;12.00;9.50;;;;;16.33;50.58;99317.78;4946375;28;102403;-87
2021/10/25 11:24:13;;;;;;;;;15.25;12.75;;;;;16.34;50.09;99321.34;4903830;28;102264;-87
2021/10/25 11:26:51;;;;;;;;;8.50;7.50;;;;;16.35;49.98;99301.16;4949338;28;109299;-87
2021/10/25 11:29:24;;;;;;;;;10.00;9.00;;;;;16.36;49.99;99300.13;4915998;28;102352;-87
2021/10/25 11:31:56;;;;;;;;;12.25;10.25;;;;;16.39;49.71;99302.44;4921448;28;103556;-87
2021/10/25 11:34:28;;;;;;;;;8.50;8.00;;;;;16.40;49.92;99299.44;4944445;28;102389;-87
2021/10/25 11:37:23;;;;;;;;;15.75;11.50;;;;;16.43;50.77;99287.28;4929855;28;104373;-87
2021/10/25 11:40:02;;;;;;;;;9.25;8.25;;;;;16.44;50.33;99294.38;4934921;28;102608;-88
2021/10/25 11:42:43;;;;;;;;;10.25;9.25;;;;;16.45;49.78;99280.53;4923267;28;102368;-87
2021/10/25 11:45:15;;;;;;;;;11.50;7.50;;;;;16.51;50.07;99289.72;4924314;28;102732;-87
2021/10/25 11:47:44;;;;;;;;;10.50;9.50;;;;;16.56;50.58;99289.06;4910349;28;104415;-88
2021/10/25 11:50:10;;;;;;;;;12.50;10.75;;;;;16.57;50.66;99283.34;4924985;28;102201;-87
2021/10/25 11:52:52;;;;;;;;;10.75;9.25;;;;;16.59;50.29;99286.75;4941894;28;102562;-87
2021/10/25 11:55:21;;;;;;;;;11.75;9.00;;;;;16.60;49.91;99276.66;4936213;28;102773;-88
2021/10/25 11:57:51;;;;;;;;;11.00;9.00;;;;;16.67;49.46;99272.78;4929583;28;104140;-87
2021/10/25 12:00:20;;;;;;;;;10.00;9.00;;;;;16.68;49.16;99274.47;4937251;28;103785;-87
2021/10/25 12:02:47;;;;;;;;;11.00;8.50;;;;;16.68;49.67;99268.19;4929856;28;103697;-87
2021/10/25 12:05:20;;;;;;;;;12.50;9.00;;;;;16.74;49.58;99267.28;4914959;28;102396;-87
2021/10/25 12:07:48;;;;;;;;;11.00;9.50;;;;;16.74;49.44;99261.81;4927267;28;106613;-88
2021/10/25 12:10:15;;;;;;;;;10.00;7.75;;;;;16.79;49.75;99264.72;4949397;28;102343;-87
2021/10/25 12:12:42;;;;;;;;;10.75;9.25;;;;;16.82;50.08;99276.03;4933255;28;103289;-87
2021/10/25 12:15:14;;;;;;;;;9.75;7.00;;;;;16.83;49.47;99260.47;4932982;28;102763;-88
2021/10/25 12:17:41;;;;;;;;;9.75;8.00;;;;;16.86;49.70;99255.41;4951692;28;104057;-88
2021/10/25 12:20:11;;;;;;;;;9.75;9.00;;;;;16.91;50.34;99266.47;4951698;28;102242;-88
2021/10/25 12:22:42;;;;;;;;;11.25;7.50;;;;;16.93;49.73;99255.34;4928844;28;102626;-87
2021/10/25 12:25:09;;;;;;;;;13.00;9.00;;;;;16.97;50.28;99255.72;4938704;28;102625;-87
2021/10/25 12:27:38;;;;;;;;;9.00;8.00;;;;;17.01;49.41;99256.94;4936611;28;103403;-87
2021/10/25 12:30:10;;;;;;;;;9.00;8.00;;;;;17.05;49.96;99255.41;4927507;28;103142;-87
2021/10/25 12:32:48;;;;;;;;;11.00;7.50;;;;;17.06;49.48;99249.75;4950241;28;102481;-87
2021/10/25 12:35:15;;;;;;;;;11.00;9.00;;;;;17.08;49.51;99246.75;4955327;28;103277;-87
2021/10/25 12:37:42;;;;;;;;;12.25;10.00;;;;;17.13;49.32;99249.66;4945044;28;110568;-88
2021/10/25 12:40:19;;;;;;;;;9.75;8.50;;;;;17.15;49.69;99244.81;4946382;28;102764;-88
2021/10/25 12:42:46;;;;;;;;;8.50;7.25;;;;;17.19;49.91;99233.19;4944312;28;102552;-88
2021/10/25 12:45:20;;;;;;;;;7.00;7.00;;;;;17.25;49.79;99231.41;4913754;28;102682;-88
2021/10/25 12:47:47;;;;;;;;;10.00;8.00;;;;;17.29;49.84;99232.66;4906798;28;104099;-88
2021/10/25 12:50:15;;;;;;;;;9.00;8.50;;;;;17.30;49.91;99223.38;4953775;28;102327;-87
2021/10/25 12:52:44;;;;;;;;;11.25;9.75;;;;;17.32;50.62;99216.63;4929002;28;105176;-88
2021/10/25 12:55:11;;;;;;;;;10.75;10.25;;;;;17.33;50.15;99218.31;4915581;28;102210;-87
2021/10/25 12:57:39;;;;;;;;;9.50;8.75;;;;;17.38;49.11;99207.47;4942652;28;104167;-88
2021/10/25 13:00:14;;;;;;;;;8.00;8.00;;;;;17.47;48.82;99201.72;4952660;28;103740;-87
2021/10/25 13:02:47;;;;;;;;;7.25;6.75;;;;;17.48;49.65;99193.28;4936057;28;103404;-87
2021/10/25 13:05:21;;;;;;;;;9.50;8.50;;;;;17.53;48.99;99193.41;4928470;28;102455;-87
2021/10/25 13:07:55;;;;;;;;;8.50;7.00;;;;;17.57;49.39;99193.78;4945525;28;104037;-87